sensor_id;sensor_type;location;lat;lon;timestamp;P1;durP1;ratioP1;P2;durP2;ratioP2
21634;SDS011;10979;48.306;9.830;2023-01-04T00:01:37;0.30;;;0.30;;
21634;SDS011;10979;48.306;9.830;2023-01-04T00:04:03;0.30;;;0.30;;
21634;SDS011;10979;48.306;9.830;2023-01-04T00:06:28;0.30;;;0.30;;
21634;SDS011;10979;48.306;9.830;2023-01-04T00:08:54;0.30;;;0.30;;
21634;SDS011;10979;48.306;9.830;2023-01-04T00:11:20;0.30;;;0.30;;
21634;SDS011;10979;48.306;9.830;2023-01-04T00:13:47;0.30;;;0.30;;
21634;SDS011;10979;48.306;9.830;2023-01-04T00:16:16;0.30;;;0.30;;
21634;SDS011;10979;48.306;9.830;2023-01-04T00:18:43;0.30;;;0.30;;
21634;SDS011;10979;48.306;9.830;2023-01-04T00:21:10;0.30;;;0.30;;
21634;SDS011;10979;48.306;9.830;2023-01-04T00:23:38;0.30;;;0.30;;
21634;SDS011;10979;48.306;9.830;2023-01-04T00:26:23;0.30;;;0.30;;
21634;SDS011;10979;48.306;9.830;2023-01-04T00:28:54;0.30;;;0.30;;
21634;SDS011;10979;48.306;9.830;2023-01-04T00:31:25;0.30;;;0.30;;
21634;SDS011;10979;48.306;9.830;2023-01-04T00:33:55;0.30;;;0.30;;
21634;SDS011;10979;48.306;9.830;2023-01-04T00:36:22;0.30;;;0.30;;
21634;SDS011;10979;48.306;9.830;2023-01-04T00:38:48;0.30;;;0.30;;
21634;SDS011;10979;48.306;9.830;2023-01-04T00:41:52;0.30;;;0.30;;
21634;SDS011;10979;48.306;9.830;2023-01-04T00:44:17;0.30;;;0.30;;
21634;SDS011;10979;48.306;9.830;2023-01-04T00:46:45;0.30;;;0.30;;
21634;SDS011;10979;48.306;9.830;2023-01-04T00:49:11;0.30;;;0.30;;
21634;SDS011;10979;48.306;9.830;2023-01-04T00:51:38;0.30;;;0.30;;
21634;SDS011;10979;48.306;9.830;2023-01-04T00:54:05;0.30;;;0.30;;
21634;SDS011;10979;48.306;9.830;2023-01-04T00:56:33;0.30;;;0.30;;
21634;SDS011;10979;48.306;9.830;2023-01-04T00:59:00;0.30;;;0.30;;
21634;SDS011;10979;48.306;9.830;2023-01-04T01:01:27;0.30;;;0.30;;
21634;SDS011;10979;48.306;9.830;2023-01-04T01:03:54;0.30;;;0.30;;
21634;SDS011;10979;48.306;9.830;2023-01-04T01:06:21;0.30;;;0.30;;
21634;SDS011;10979;48.306;9.830;2023-01-04T01:08:48;0.30;;;0.30;;
21634;SDS011;10979;48.306;9.830;2023-01-04T01:11:15;0.30;;;0.30;;
21634;SDS011;10979;48.306;9.830;2023-01-04T01:13:41;0.30;;;0.30;;
21634;SDS011;10979;48.306;9.830;2023-01-04T01:16:08;0.30;;;0.30;;
21634;SDS011;10979;48.306;9.830;2023-01-04T01:18:36;0.30;;;0.30;;
21634;SDS011;10979;48.306;9.830;2023-01-04T01:21:07;0.30;;;0.30;;
21634;SDS011;10979;48.306;9.830;2023-01-04T01:23:35;0.30;;;0.30;;
21634;SDS011;10979;48.306;9.830;2023-01-04T01:26:01;0.30;;;0.30;;
21634;SDS011;10979;48.306;9.830;2023-01-04T01:28:28;0.30;;;0.30;;
21634;SDS011;10979;48.306;9.830;2023-01-04T01:30:54;0.30;;;0.30;;
21634;SDS011;10979;48.306;9.830;2023-01-04T01:33:20;0.30;;;0.30;;
21634;SDS011;10979;48.306;9.830;2023-01-04T01:35:45;0.30;;;0.30;;
21634;SDS011;10979;48.306;9.830;2023-01-04T01:38:11;0.30;;;0.30;;
21634;SDS011;10979;48.306;9.830;2023-01-04T01:40:40;0.30;;;0.30;;
21634;SDS011;10979;48.306;9.830;2023-01-04T01:43:14;0.30;;;0.30;;
21634;SDS011;10979;48.306;9.830;2023-01-04T01:45:54;0.30;;;0.30;;
21634;SDS011;10979;48.306;9.830;2023-01-04T01:48:22;0.30;;;0.30;;
21634;SDS011;10979;48.306;9.830;2023-01-04T01:50:59;0.30;;;0.30;;
21634;SDS011;10979;48.306;9.830;2023-01-04T01:53:27;0.30;;;0.30;;
21634;SDS011;10979;48.306;9.830;2023-01-04T01:55:56;0.30;;;0.30;;
21634;SDS011;10979;48.306;9.830;2023-01-04T01:58:27;0.30;;;0.30;;
21634;SDS011;10979;48.306;9.830;2023-01-04T02:00:58;0.30;;;0.30;;
21634;SDS011;10979;48.306;9.830;2023-01-04T02:03:29;0.30;;;0.30;;
21634;SDS011;10979;48.306;9.830;2023-01-04T02:05:59;0.30;;;0.30;;
21634;SDS011;10979;48.306;9.830;2023-01-04T02:08:26;0.30;;;0.30;;
21634;SDS011;10979;48.306;9.830;2023-01-04T02:10:53;0.30;;;0.30;;
21634;SDS011;10979;48.306;9.830;2023-01-04T02:13:21;0.30;;;0.30;;
21634;SDS011;10979;48.306;9.830;2023-01-04T02:16:07;0.30;;;0.30;;
21634;SDS011;10979;48.306;9.830;2023-01-04T02:19:03;0.30;;;0.30;;
21634;SDS011;10979;48.306;9.830;2023-01-04T02:21:55;0.30;;;0.30;;
21634;SDS011;10979;48.306;9.830;2023-01-04T02:38:48;0.30;;;0.30;;
21634;SDS011;10979;48.306;9.830;2023-01-04T02:41:28;0.30;;;0.30;;
21634;SDS011;10979;48.306;9.830;2023-01-04T02:44:18;0.30;;;0.30;;
21634;SDS011;10979;48.306;9.830;2023-01-04T02:47:25;0.30;;;0.30;;
21634;SDS011;10979;48.306;9.830;2023-01-04T02:50:15;0.30;;;0.30;;
21634;SDS011;10979;48.306;9.830;2023-01-04T02:53:07;0.30;;;0.30;;
21634;SDS011;10979;48.306;9.830;2023-01-04T02:58:50;0.30;;;0.30;;
21634;SDS011;10979;48.306;9.830;2023-01-04T03:15:39;0.30;;;0.30;;
21634;SDS011;10979;48.306;9.830;2023-01-04T03:20:39;0.30;;;0.30;;
21634;SDS011;10979;48.306;9.830;2023-01-04T03:23:07;0.30;;;0.30;;
21634;SDS011;10979;48.306;9.830;2023-01-04T03:25:56;0.30;;;0.30;;
21634;SDS011;10979;48.306;9.830;2023-01-04T03:28:45;0.30;;;0.30;;
21634;SDS011;10979;48.306;9.830;2023-01-04T03:31:48;0.30;;;0.30;;
21634;SDS011;10979;48.306;9.830;2023-01-04T03:34:40;0.30;;;0.30;;
21634;SDS011;10979;48.306;9.830;2023-01-04T03:37:31;0.30;;;0.30;;
21634;SDS011;10979;48.306;9.830;2023-01-04T03:40:28;0.30;;;0.30;;
21634;SDS011;10979;48.306;9.830;2023-01-04T03:43:18;0.30;;;0.30;;
21634;SDS011;10979;48.306;9.830;2023-01-04T03:46:28;0.30;;;0.30;;
21634;SDS011;10979;48.306;9.830;2023-01-04T03:51:44;0.30;;;0.30;;
21634;SDS011;10979;48.306;9.830;2023-01-04T03:54:16;0.30;;;0.30;;
21634;SDS011;10979;48.306;9.830;2023-01-04T03:56:46;0.30;;;0.30;;
21634;SDS011;10979;48.306;9.830;2023-01-04T03:59:13;0.30;;;0.30;;
21634;SDS011;10979;48.306;9.830;2023-01-04T04:01:40;0.30;;;0.30;;
21634;SDS011;10979;48.306;9.830;2023-01-04T04:04:07;0.30;;;0.30;;
21634;SDS011;10979;48.306;9.830;2023-01-04T04:06:53;0.30;;;0.30;;
21634;SDS011;10979;48.306;9.830;2023-01-04T04:09:36;0.30;;;0.30;;
21634;SDS011;10979;48.306;9.830;2023-01-04T04:12:02;0.30;;;0.30;;
21634;SDS011;10979;48.306;9.830;2023-01-04T04:14:28;0.30;;;0.30;;
21634;SDS011;10979;48.306;9.830;2023-01-04T04:16:53;0.30;;;0.30;;
21634;SDS011;10979;48.306;9.830;2023-01-04T04:19:19;0.30;;;0.30;;
21634;SDS011;10979;48.306;9.830;2023-01-04T04:21:45;0.30;;;0.30;;
21634;SDS011;10979;48.306;9.830;2023-01-04T04:24:24;0.30;;;0.30;;
21634;SDS011;10979;48.306;9.830;2023-01-04T04:26:54;0.30;;;0.30;;
21634;SDS011;10979;48.306;9.830;2023-01-04T04:29:20;0.30;;;0.30;;
21634;SDS011;10979;48.306;9.830;2023-01-04T04:31:46;0.30;;;0.30;;
21634;SDS011;10979;48.306;9.830;2023-01-04T04:34:11;0.30;;;0.30;;
21634;SDS011;10979;48.306;9.830;2023-01-04T04:36:37;0.30;;;0.30;;
21634;SDS011;10979;48.306;9.830;2023-01-04T04:39:03;0.30;;;0.30;;
21634;SDS011;10979;48.306;9.830;2023-01-04T04:41:28;0.30;;;0.30;;
21634;SDS011;10979;48.306;9.830;2023-01-04T04:44:05;0.30;;;0.30;;
21634;SDS011;10979;48.306;9.830;2023-01-04T04:46:33;0.30;;;0.30;;
21634;SDS011;10979;48.306;9.830;2023-01-04T04:48:59;0.30;;;0.30;;
21634;SDS011;10979;48.306;9.830;2023-01-04T04:51:25;0.30;;;0.30;;
21634;SDS011;10979;48.306;9.830;2023-01-04T04:53:51;0.30;;;0.30;;
21634;SDS011;10979;48.306;9.830;2023-01-04T04:56:16;0.30;;;0.30;;
21634;SDS011;10979;48.306;9.830;2023-01-04T04:58:42;0.30;;;0.30;;
21634;SDS011;10979;48.306;9.830;2023-01-04T05:01:07;0.30;;;0.30;;
21634;SDS011;10979;48.306;9.830;2023-01-04T05:03:33;0.30;;;0.30;;
21634;SDS011;10979;48.306;9.830;2023-01-04T05:05:59;0.30;;;0.30;;
21634;SDS011;10979;48.306;9.830;2023-01-04T05:08:24;0.30;;;0.30;;
21634;SDS011;10979;48.306;9.830;2023-01-04T05:10:50;0.30;;;0.30;;
21634;SDS011;10979;48.306;9.830;2023-01-04T05:13:16;0.30;;;0.30;;
21634;SDS011;10979;48.306;9.830;2023-01-04T05:15:43;0.30;;;0.30;;
21634;SDS011;10979;48.306;9.830;2023-01-04T05:18:14;0.30;;;0.30;;
21634;SDS011;10979;48.306;9.830;2023-01-04T05:20:41;0.30;;;0.30;;
21634;SDS011;10979;48.306;9.830;2023-01-04T05:23:07;0.30;;;0.30;;
21634;SDS011;10979;48.306;9.830;2023-01-04T05:25:35;0.30;;;0.30;;
21634;SDS011;10979;48.306;9.830;2023-01-04T05:28:00;0.30;;;0.30;;
21634;SDS011;10979;48.306;9.830;2023-01-04T05:30:26;0.30;;;0.30;;
21634;SDS011;10979;48.306;9.830;2023-01-04T05:33:10;0.30;;;0.30;;
21634;SDS011;10979;48.306;9.830;2023-01-04T05:35:36;0.20;;;0.20;;
21634;SDS011;10979;48.306;9.830;2023-01-04T05:38:02;0.30;;;0.30;;
21634;SDS011;10979;48.306;9.830;2023-01-04T05:40:27;0.20;;;0.20;;
21634;SDS011;10979;48.306;9.830;2023-01-04T05:42:53;0.30;;;0.30;;
21634;SDS011;10979;48.306;9.830;2023-01-04T05:45:19;0.30;;;0.30;;
21634;SDS011;10979;48.306;9.830;2023-01-04T05:47:47;0.30;;;0.30;;
21634;SDS011;10979;48.306;9.830;2023-01-04T05:50:15;0.30;;;0.30;;
21634;SDS011;10979;48.306;9.830;2023-01-04T05:52:41;0.30;;;0.30;;
21634;SDS011;10979;48.306;9.830;2023-01-04T05:55:06;0.30;;;0.30;;
21634;SDS011;10979;48.306;9.830;2023-01-04T05:57:32;0.30;;;0.30;;
21634;SDS011;10979;48.306;9.830;2023-01-04T05:59:58;0.30;;;0.30;;
21634;SDS011;10979;48.306;9.830;2023-01-04T06:02:25;0.30;;;0.30;;
21634;SDS011;10979;48.306;9.830;2023-01-04T06:04:52;0.30;;;0.30;;
21634;SDS011;10979;48.306;9.830;2023-01-04T06:07:18;0.30;;;0.30;;
21634;SDS011;10979;48.306;9.830;2023-01-04T06:09:44;0.30;;;0.30;;
21634;SDS011;10979;48.306;9.830;2023-01-04T06:12:09;0.30;;;0.30;;
21634;SDS011;10979;48.306;9.830;2023-01-04T06:14:36;0.30;;;0.30;;
21634;SDS011;10979;48.306;9.830;2023-01-04T06:17:01;0.30;;;0.30;;
21634;SDS011;10979;48.306;9.830;2023-01-04T06:19:27;0.30;;;0.30;;
21634;SDS011;10979;48.306;9.830;2023-01-04T06:21:53;0.30;;;0.30;;
21634;SDS011;10979;48.306;9.830;2023-01-04T06:24:18;0.30;;;0.30;;
21634;SDS011;10979;48.306;9.830;2023-01-04T06:26:44;0.30;;;0.30;;
21634;SDS011;10979;48.306;9.830;2023-01-04T06:29:10;0.30;;;0.30;;
21634;SDS011;10979;48.306;9.830;2023-01-04T06:31:36;0.30;;;0.30;;
21634;SDS011;10979;48.306;9.830;2023-01-04T06:34:01;0.30;;;0.30;;
21634;SDS011;10979;48.306;9.830;2023-01-04T06:36:27;0.30;;;0.30;;
21634;SDS011;10979;48.306;9.830;2023-01-04T06:38:55;0.30;;;0.30;;
21634;SDS011;10979;48.306;9.830;2023-01-04T06:41:21;0.30;;;0.30;;
21634;SDS011;10979;48.306;9.830;2023-01-04T06:43:47;0.30;;;0.30;;
21634;SDS011;10979;48.306;9.830;2023-01-04T06:46:13;0.30;;;0.30;;
21634;SDS011;10979;48.306;9.830;2023-01-04T06:48:38;0.30;;;0.30;;
21634;SDS011;10979;48.306;9.830;2023-01-04T06:51:04;0.30;;;0.30;;
21634;SDS011;10979;48.306;9.830;2023-01-04T06:53:29;0.30;;;0.30;;
21634;SDS011;10979;48.306;9.830;2023-01-04T06:55:55;0.30;;;0.30;;
21634;SDS011;10979;48.306;9.830;2023-01-04T06:58:20;0.30;;;0.30;;
21634;SDS011;10979;48.306;9.830;2023-01-04T07:00:46;0.30;;;0.30;;
21634;SDS011;10979;48.306;9.830;2023-01-04T07:03:12;0.30;;;0.30;;
21634;SDS011;10979;48.306;9.830;2023-01-04T07:05:37;0.30;;;0.30;;
21634;SDS011;10979;48.306;9.830;2023-01-04T07:08:03;0.30;;;0.30;;
21634;SDS011;10979;48.306;9.830;2023-01-04T07:10:29;0.30;;;0.30;;
21634;SDS011;10979;48.306;9.830;2023-01-04T07:12:55;0.30;;;0.30;;
21634;SDS011;10979;48.306;9.830;2023-01-04T07:15:20;0.30;;;0.30;;
21634;SDS011;10979;48.306;9.830;2023-01-04T07:17:47;0.30;;;0.30;;
21634;SDS011;10979;48.306;9.830;2023-01-04T07:20:13;0.30;;;0.30;;
21634;SDS011;10979;48.306;9.830;2023-01-04T07:22:39;0.30;;;0.30;;
21634;SDS011;10979;48.306;9.830;2023-01-04T07:25:05;0.30;;;0.30;;
21634;SDS011;10979;48.306;9.830;2023-01-04T07:27:30;0.30;;;0.30;;
21634;SDS011;10979;48.306;9.830;2023-01-04T07:29:56;0.30;;;0.30;;
21634;SDS011;10979;48.306;9.830;2023-01-04T07:32:21;0.30;;;0.30;;
21634;SDS011;10979;48.306;9.830;2023-01-04T07:34:47;0.30;;;0.30;;
21634;SDS011;10979;48.306;9.830;2023-01-04T07:37:13;0.30;;;0.30;;
21634;SDS011;10979;48.306;9.830;2023-01-04T07:39:40;0.30;;;0.30;;
21634;SDS011;10979;48.306;9.830;2023-01-04T07:42:06;0.30;;;0.30;;
21634;SDS011;10979;48.306;9.830;2023-01-04T07:44:31;0.30;;;0.30;;
21634;SDS011;10979;48.306;9.830;2023-01-04T07:46:57;0.30;;;0.30;;
21634;SDS011;10979;48.306;9.830;2023-01-04T07:49:23;0.30;;;0.30;;
21634;SDS011;10979;48.306;9.830;2023-01-04T07:51:48;0.30;;;0.30;;
21634;SDS011;10979;48.306;9.830;2023-01-04T07:54:15;0.30;;;0.30;;
21634;SDS011;10979;48.306;9.830;2023-01-04T07:56:41;0.20;;;0.20;;
21634;SDS011;10979;48.306;9.830;2023-01-04T07:59:08;0.30;;;0.30;;
21634;SDS011;10979;48.306;9.830;2023-01-04T08:01:35;0.30;;;0.30;;
21634;SDS011;10979;48.306;9.830;2023-01-04T08:04:02;0.30;;;0.30;;
21634;SDS011;10979;48.306;9.830;2023-01-04T08:06:32;0.30;;;0.30;;
21634;SDS011;10979;48.306;9.830;2023-01-04T08:08:58;0.30;;;0.30;;
21634;SDS011;10979;48.306;9.830;2023-01-04T08:11:24;0.20;;;0.20;;
21634;SDS011;10979;48.306;9.830;2023-01-04T08:13:50;0.30;;;0.30;;
21634;SDS011;10979;48.306;9.830;2023-01-04T08:16:20;0.22;;;0.22;;
21634;SDS011;10979;48.306;9.830;2023-01-04T08:18:47;0.30;;;0.30;;
21634;SDS011;10979;48.306;9.830;2023-01-04T08:21:16;0.22;;;0.22;;
21634;SDS011;10979;48.306;9.830;2023-01-04T08:23:42;0.20;;;0.20;;
21634;SDS011;10979;48.306;9.830;2023-01-04T08:26:09;0.30;;;0.30;;
21634;SDS011;10979;48.306;9.830;2023-01-04T08:28:36;0.30;;;0.30;;
21634;SDS011;10979;48.306;9.830;2023-01-04T08:31:03;0.30;;;0.30;;
21634;SDS011;10979;48.306;9.830;2023-01-04T08:33:34;0.20;;;0.20;;
21634;SDS011;10979;48.306;9.830;2023-01-04T08:36:11;0.20;;;0.20;;
21634;SDS011;10979;48.306;9.830;2023-01-04T08:38:48;0.30;;;0.30;;
21634;SDS011;10979;48.306;9.830;2023-01-04T08:41:15;0.30;;;0.30;;
21634;SDS011;10979;48.306;9.830;2023-01-04T08:43:41;0.20;;;0.20;;
21634;SDS011;10979;48.306;9.830;2023-01-04T08:46:07;0.30;;;0.30;;
21634;SDS011;10979;48.306;9.830;2023-01-04T08:48:33;0.20;;;0.20;;
21634;SDS011;10979;48.306;9.830;2023-01-04T08:50:59;0.30;;;0.30;;
21634;SDS011;10979;48.306;9.830;2023-01-04T08:53:26;0.20;;;0.20;;
21634;SDS011;10979;48.306;9.830;2023-01-04T08:55:52;0.20;;;0.20;;
21634;SDS011;10979;48.306;9.830;2023-01-04T08:58:19;0.30;;;0.30;;
21634;SDS011;10979;48.306;9.830;2023-01-04T09:00:44;0.20;;;0.20;;
21634;SDS011;10979;48.306;9.830;2023-01-04T09:03:10;0.20;;;0.20;;
21634;SDS011;10979;48.306;9.830;2023-01-04T09:05:36;0.20;;;0.20;;
21634;SDS011;10979;48.306;9.830;2023-01-04T09:08:02;0.20;;;0.20;;
21634;SDS011;10979;48.306;9.830;2023-01-04T09:10:27;0.20;;;0.20;;
21634;SDS011;10979;48.306;9.830;2023-01-04T09:12:53;0.25;;;0.25;;
21634;SDS011;10979;48.306;9.830;2023-01-04T09:15:19;0.20;;;0.20;;
21634;SDS011;10979;48.306;9.830;2023-01-04T09:17:45;0.20;;;0.20;;
21634;SDS011;10979;48.306;9.830;2023-01-04T09:20:12;0.20;;;0.20;;
21634;SDS011;10979;48.306;9.830;2023-01-04T09:22:38;0.20;;;0.20;;
21634;SDS011;10979;48.306;9.830;2023-01-04T09:25:03;0.20;;;0.20;;
21634;SDS011;10979;48.306;9.830;2023-01-04T09:27:30;0.20;;;0.20;;
21634;SDS011;10979;48.306;9.830;2023-01-04T09:29:55;0.20;;;0.20;;
21634;SDS011;10979;48.306;9.830;2023-01-04T09:32:21;0.20;;;0.20;;
21634;SDS011;10979;48.306;9.830;2023-01-04T09:34:46;0.20;;;0.20;;
21634;SDS011;10979;48.306;9.830;2023-01-04T09:37:12;0.20;;;0.20;;
21634;SDS011;10979;48.306;9.830;2023-01-04T09:39:38;0.20;;;0.20;;
21634;SDS011;10979;48.306;9.830;2023-01-04T09:42:04;0.20;;;0.20;;
21634;SDS011;10979;48.306;9.830;2023-01-04T09:44:40;0.20;;;0.20;;
21634;SDS011;10979;48.306;9.830;2023-01-04T09:47:14;0.30;;;0.30;;
21634;SDS011;10979;48.306;9.830;2023-01-04T09:49:58;0.20;;;0.20;;
21634;SDS011;10979;48.306;9.830;2023-01-04T09:52:55;0.20;;;0.20;;
21634;SDS011;10979;48.306;9.830;2023-01-04T09:55:30;0.20;;;0.20;;
21634;SDS011;10979;48.306;9.830;2023-01-04T09:58:02;0.20;;;0.20;;
21634;SDS011;10979;48.306;9.830;2023-01-04T10:00:50;0.20;;;0.20;;
21634;SDS011;10979;48.306;9.830;2023-01-04T10:03:27;0.20;;;0.20;;
21634;SDS011;10979;48.306;9.830;2023-01-04T10:05:57;0.20;;;0.20;;
21634;SDS011;10979;48.306;9.830;2023-01-04T10:08:22;0.20;;;0.20;;
21634;SDS011;10979;48.306;9.830;2023-01-04T10:11:01;0.20;;;0.20;;
21634;SDS011;10979;48.306;9.830;2023-01-04T10:21:44;0.20;;;0.20;;
21634;SDS011;10979;48.306;9.830;2023-01-04T10:24:34;0.20;;;0.20;;
21634;SDS011;10979;48.306;9.830;2023-01-04T10:30:06;0.20;;;0.20;;
21634;SDS011;10979;48.306;9.830;2023-01-04T10:37:49;0.20;;;0.20;;
21634;SDS011;10979;48.306;9.830;2023-01-04T10:40:18;0.20;;;0.20;;
21634;SDS011;10979;48.306;9.830;2023-01-04T10:42:47;0.20;;;0.20;;
21634;SDS011;10979;48.306;9.830;2023-01-04T10:45:16;0.20;;;0.20;;
21634;SDS011;10979;48.306;9.830;2023-01-04T10:48:07;0.20;;;0.20;;
21634;SDS011;10979;48.306;9.830;2023-01-04T10:50:54;0.20;;;0.20;;
21634;SDS011;10979;48.306;9.830;2023-01-04T10:53:39;0.20;;;0.20;;
21634;SDS011;10979;48.306;9.830;2023-01-04T10:59:03;0.20;;;0.20;;
21634;SDS011;10979;48.306;9.830;2023-01-04T11:01:32;0.20;;;0.20;;
21634;SDS011;10979;48.306;9.830;2023-01-04T11:04:05;0.20;;;0.20;;
21634;SDS011;10979;48.306;9.830;2023-01-04T11:09:07;0.20;;;0.20;;
21634;SDS011;10979;48.306;9.830;2023-01-04T11:11:43;0.20;;;0.20;;
21634;SDS011;10979;48.306;9.830;2023-01-04T11:14:10;0.20;;;0.20;;
21634;SDS011;10979;48.306;9.830;2023-01-04T11:16:38;0.20;;;0.20;;
21634;SDS011;10979;48.306;9.830;2023-01-04T11:19:07;0.20;;;0.20;;
21634;SDS011;10979;48.306;9.830;2023-01-04T11:21:39;0.20;;;0.20;;
21634;SDS011;10979;48.306;9.830;2023-01-04T11:24:22;0.20;;;0.20;;
21634;SDS011;10979;48.306;9.830;2023-01-04T11:26:48;0.20;;;0.20;;
21634;SDS011;10979;48.306;9.830;2023-01-04T11:32:21;0.10;;;0.10;;
21634;SDS011;10979;48.306;9.830;2023-01-04T11:34:58;0.20;;;0.20;;
21634;SDS011;10979;48.306;9.830;2023-01-04T11:37:28;0.20;;;0.20;;
21634;SDS011;10979;48.306;9.830;2023-01-04T11:42:43;0.20;;;0.20;;
21634;SDS011;10979;48.306;9.830;2023-01-04T11:45:20;0.13;;;0.13;;
21634;SDS011;10979;48.306;9.830;2023-01-04T11:47:59;0.20;;;0.20;;
21634;SDS011;10979;48.306;9.830;2023-01-04T11:55:47;0.20;;;0.20;;
21634;SDS011;10979;48.306;9.830;2023-01-04T11:58:14;0.20;;;0.20;;
21634;SDS011;10979;48.306;9.830;2023-01-04T12:00:48;0.20;;;0.20;;
21634;SDS011;10979;48.306;9.830;2023-01-04T12:03:14;0.20;;;0.20;;
21634;SDS011;10979;48.306;9.830;2023-01-04T12:05:42;0.20;;;0.20;;
21634;SDS011;10979;48.306;9.830;2023-01-04T12:08:12;0.20;;;0.20;;
21634;SDS011;10979;48.306;9.830;2023-01-04T12:10:48;0.20;;;0.20;;
21634;SDS011;10979;48.306;9.830;2023-01-04T12:13:14;0.20;;;0.20;;
21634;SDS011;10979;48.306;9.830;2023-01-04T12:15:51;0.20;;;0.20;;
21634;SDS011;10979;48.306;9.830;2023-01-04T12:18:33;0.20;;;0.20;;
21634;SDS011;10979;48.306;9.830;2023-01-04T12:21:01;0.10;;;0.10;;
21634;SDS011;10979;48.306;9.830;2023-01-04T12:23:27;0.20;;;0.20;;
21634;SDS011;10979;48.306;9.830;2023-01-04T12:25:53;0.20;;;0.20;;
21634;SDS011;10979;48.306;9.830;2023-01-04T12:31:25;0.20;;;0.20;;
21634;SDS011;10979;48.306;9.830;2023-01-04T12:33:53;0.10;;;0.10;;
21634;SDS011;10979;48.306;9.830;2023-01-04T12:47:01;0.10;;;0.10;;
21634;SDS011;10979;48.306;9.830;2023-01-04T12:49:51;0.20;;;0.20;;
21634;SDS011;10979;48.306;9.830;2023-01-04T12:54:50;0.10;;;0.10;;
21634;SDS011;10979;48.306;9.830;2023-01-04T12:57:31;0.10;;;0.10;;
21634;SDS011;10979;48.306;9.830;2023-01-04T12:59:59;0.20;;;0.20;;
21634;SDS011;10979;48.306;9.830;2023-01-04T13:02:37;0.10;;;0.10;;
21634;SDS011;10979;48.306;9.830;2023-01-04T13:07:45;0.20;;;0.20;;
21634;SDS011;10979;48.306;9.830;2023-01-04T13:15:21;0.10;;;0.10;;
21634;SDS011;10979;48.306;9.830;2023-01-04T13:18:03;0.10;;;0.10;;
21634;SDS011;10979;48.306;9.830;2023-01-04T13:20:51;0.20;;;0.20;;
21634;SDS011;10979;48.306;9.830;2023-01-04T13:23:16;0.10;;;0.10;;
21634;SDS011;10979;48.306;9.830;2023-01-04T13:25:42;0.10;;;0.10;;
21634;SDS011;10979;48.306;9.830;2023-01-04T13:28:12;0.20;;;0.20;;
21634;SDS011;10979;48.306;9.830;2023-01-04T13:30:41;0.10;;;0.10;;
21634;SDS011;10979;48.306;9.830;2023-01-04T13:33:10;0.20;;;0.20;;
21634;SDS011;10979;48.306;9.830;2023-01-04T13:35:43;0.20;;;0.20;;
21634;SDS011;10979;48.306;9.830;2023-01-04T13:38:20;0.17;;;0.17;;
21634;SDS011;10979;48.306;9.830;2023-01-04T13:40:45;0.10;;;0.10;;
21634;SDS011;10979;48.306;9.830;2023-01-04T13:45:44;0.10;;;0.10;;
21634;SDS011;10979;48.306;9.830;2023-01-04T13:48:34;0.10;;;0.10;;
21634;SDS011;10979;48.306;9.830;2023-01-04T13:51:04;0.10;;;0.10;;
21634;SDS011;10979;48.306;9.830;2023-01-04T13:53:38;0.10;;;0.10;;
21634;SDS011;10979;48.306;9.830;2023-01-04T13:56:04;0.10;;;0.10;;
21634;SDS011;10979;48.306;9.830;2023-01-04T13:58:31;0.10;;;0.10;;
21634;SDS011;10979;48.306;9.830;2023-01-04T14:03:33;0.10;;;0.10;;
21634;SDS011;10979;48.306;9.830;2023-01-04T14:08:52;0.20;;;0.20;;
21634;SDS011;10979;48.306;9.830;2023-01-04T14:11:25;0.10;;;0.10;;
21634;SDS011;10979;48.306;9.830;2023-01-04T14:14:15;0.20;;;0.20;;
21634;SDS011;10979;48.306;9.830;2023-01-04T14:16:47;0.20;;;0.20;;
21634;SDS011;10979;48.306;9.830;2023-01-04T14:24:45;0.10;;;0.10;;
21634;SDS011;10979;48.306;9.830;2023-01-04T14:32:56;0.20;;;0.20;;
21634;SDS011;10979;48.306;9.830;2023-01-04T14:35:26;0.20;;;0.20;;
21634;SDS011;10979;48.306;9.830;2023-01-04T14:37:53;0.20;;;0.20;;
21634;SDS011;10979;48.306;9.830;2023-01-04T14:40:26;0.20;;;0.20;;
21634;SDS011;10979;48.306;9.830;2023-01-04T14:42:55;0.20;;;0.20;;
21634;SDS011;10979;48.306;9.830;2023-01-04T14:45:21;0.20;;;0.20;;
21634;SDS011;10979;48.306;9.830;2023-01-04T14:47:47;0.13;;;0.13;;
21634;SDS011;10979;48.306;9.830;2023-01-04T14:50:12;0.10;;;0.10;;
21634;SDS011;10979;48.306;9.830;2023-01-04T14:52:38;0.10;;;0.10;;
21634;SDS011;10979;48.306;9.830;2023-01-04T14:55:04;0.13;;;0.13;;
21634;SDS011;10979;48.306;9.830;2023-01-04T14:57:30;0.15;;;0.15;;
21634;SDS011;10979;48.306;9.830;2023-01-04T14:59:57;0.20;;;0.20;;
21634;SDS011;10979;48.306;9.830;2023-01-04T15:02:22;0.20;;;0.20;;
21634;SDS011;10979;48.306;9.830;2023-01-04T15:04:50;0.20;;;0.20;;
21634;SDS011;10979;48.306;9.830;2023-01-04T15:07:27;0.10;;;0.10;;
21634;SDS011;10979;48.306;9.830;2023-01-04T15:09:59;0.20;;;0.20;;
21634;SDS011;10979;48.306;9.830;2023-01-04T15:12:26;0.20;;;0.20;;
21634;SDS011;10979;48.306;9.830;2023-01-04T15:14:51;0.20;;;0.20;;
21634;SDS011;10979;48.306;9.830;2023-01-04T15:17:17;0.20;;;0.20;;
21634;SDS011;10979;48.306;9.830;2023-01-04T15:19:42;0.10;;;0.10;;
21634;SDS011;10979;48.306;9.830;2023-01-04T15:22:08;0.20;;;0.20;;
21634;SDS011;10979;48.306;9.830;2023-01-04T15:24:34;0.20;;;0.20;;
21634;SDS011;10979;48.306;9.830;2023-01-04T15:26:59;0.15;;;0.15;;
21634;SDS011;10979;48.306;9.830;2023-01-04T15:29:25;0.20;;;0.20;;
21634;SDS011;10979;48.306;9.830;2023-01-04T15:31:50;0.20;;;0.20;;
21634;SDS011;10979;48.306;9.830;2023-01-04T15:34:16;0.20;;;0.20;;
21634;SDS011;10979;48.306;9.830;2023-01-04T15:36:42;0.20;;;0.20;;
21634;SDS011;10979;48.306;9.830;2023-01-04T15:39:11;0.20;;;0.20;;
21634;SDS011;10979;48.306;9.830;2023-01-04T15:41:39;0.20;;;0.20;;
21634;SDS011;10979;48.306;9.830;2023-01-04T15:44:23;0.20;;;0.20;;
21634;SDS011;10979;48.306;9.830;2023-01-04T15:46:49;0.20;;;0.20;;
21634;SDS011;10979;48.306;9.830;2023-01-04T15:49:15;0.10;;;0.10;;
21634;SDS011;10979;48.306;9.830;2023-01-04T15:51:41;0.20;;;0.20;;
21634;SDS011;10979;48.306;9.830;2023-01-04T15:54:07;0.20;;;0.20;;
21634;SDS011;10979;48.306;9.830;2023-01-04T15:56:32;0.20;;;0.20;;
21634;SDS011;10979;48.306;9.830;2023-01-04T15:58:58;0.20;;;0.20;;
21634;SDS011;10979;48.306;9.830;2023-01-04T16:01:24;0.20;;;0.20;;
21634;SDS011;10979;48.306;9.830;2023-01-04T16:03:50;0.20;;;0.20;;
21634;SDS011;10979;48.306;9.830;2023-01-04T16:06:16;0.20;;;0.20;;
21634;SDS011;10979;48.306;9.830;2023-01-04T16:08:43;0.20;;;0.20;;
21634;SDS011;10979;48.306;9.830;2023-01-04T16:11:11;0.20;;;0.20;;
21634;SDS011;10979;48.306;9.830;2023-01-04T16:13:42;0.20;;;0.20;;
21634;SDS011;10979;48.306;9.830;2023-01-04T16:16:09;0.20;;;0.20;;
21634;SDS011;10979;48.306;9.830;2023-01-04T16:18:35;0.20;;;0.20;;
21634;SDS011;10979;48.306;9.830;2023-01-04T16:21:05;0.20;;;0.20;;
21634;SDS011;10979;48.306;9.830;2023-01-04T16:23:32;0.20;;;0.20;;
21634;SDS011;10979;48.306;9.830;2023-01-04T16:26:05;0.20;;;0.20;;
21634;SDS011;10979;48.306;9.830;2023-01-04T16:28:33;0.20;;;0.20;;
21634;SDS011;10979;48.306;9.830;2023-01-04T16:30:59;0.20;;;0.20;;
21634;SDS011;10979;48.306;9.830;2023-01-04T16:33:24;0.20;;;0.20;;
21634;SDS011;10979;48.306;9.830;2023-01-04T16:35:57;0.20;;;0.20;;
21634;SDS011;10979;48.306;9.830;2023-01-04T16:38:24;0.20;;;0.20;;
21634;SDS011;10979;48.306;9.830;2023-01-04T16:40:56;0.20;;;0.20;;
21634;SDS011;10979;48.306;9.830;2023-01-04T16:43:26;0.20;;;0.20;;
21634;SDS011;10979;48.306;9.830;2023-01-04T16:48:39;0.20;;;0.20;;
21634;SDS011;10979;48.306;9.830;2023-01-04T16:51:06;0.20;;;0.20;;
21634;SDS011;10979;48.306;9.830;2023-01-04T16:53:33;0.20;;;0.20;;
21634;SDS011;10979;48.306;9.830;2023-01-04T16:56:01;0.10;;;0.10;;
21634;SDS011;10979;48.306;9.830;2023-01-04T16:58:28;0.20;;;0.20;;
21634;SDS011;10979;48.306;9.830;2023-01-04T17:00:54;0.20;;;0.20;;